Time;durP1;ratioP1;P1;durP2;ratioP2;P2;SDS_P1;SDS_P2;PMS_P1;PMS_P2;Temp;Humidity;BMP_temperature;BMP_pressure;BME280_temperature;BME280_humidity;BME280_pressure;Samples;Min_cycle;Max_cycle;Signal;HPM_P1;HPM_P2
2021/12/02 00:00:41;;;;;;;4.57;3.55;;;5.40;99.90;;;;;;5049108;28;20490;-76
2021/12/02 00:03:08;;;;;;;11.88;4.60;;;5.50;99.90;;;;;;5050573;28;20036;-76
2021/12/02 00:05:34;;;;;;;6.82;4.03;;;5.50;99.90;;;;;;5050305;28;20036;-76
2021/12/02 00:08:00;;;;;;;7.80;3.85;;;5.60;99.90;;;;;;5049205;28;20048;-76
2021/12/02 00:10:31;;;;;;;4.45;3.80;;;5.50;99.90;;;;;;5050271;28;20087;-76
2021/12/02 00:13:00;;;;;;;4.53;3.40;;;5.50;99.90;;;;;;5047457;28;20045;-76
2021/12/02 00:15:35;;;;;;;6.07;3.45;;;5.50;99.90;;;;;;5029116;28;20022;-76
2021/12/02 00:23:58;;;;;;;5.65;3.92;;;5.50;99.90;;;;;;5030547;28;20406;-76
2021/12/02 00:26:24;;;;;;;4.53;3.20;;;5.50;99.90;;;;;;5030218;28;20371;-76
2021/12/02 00:28:53;;;;;;;4.93;3.40;;;5.40;99.90;;;;;;5028890;28;20037;-76
2021/12/02 00:31:22;;;;;;;5.25;3.75;;;5.50;99.90;;;;;;5030210;28;20025;-77
2021/12/02 00:33:52;;;;;;;4.30;3.53;;;5.50;99.90;;;;;;5030128;28;20045;-76
2021/12/02 00:36:20;;;;;;;3.30;3.00;;;5.50;99.90;;;;;;5028857;28;20112;-76
2021/12/02 00:38:46;;;;;;;3.95;3.00;;;5.40;99.90;;;;;;5028772;28;20037;-76
2021/12/02 00:41:14;;;;;;;5.35;4.32;;;5.40;99.90;;;;;;5028877;28;20025;-76
2021/12/02 00:43:40;;;;;;;5.70;3.35;;;5.40;99.90;;;;;;5028563;28;20034;-77
2021/12/02 00:46:08;;;;;;;5.57;3.50;;;5.40;99.90;;;;;;5029974;28;20029;-77
2021/12/02 00:48:36;;;;;;;3.85;3.15;;;5.40;99.90;;;;;;5029920;28;20025;-76
2021/12/02 00:51:02;;;;;;;3.80;2.95;;;5.40;99.90;;;;;;5029980;28;20563;-77
2021/12/02 00:53:30;;;;;;;3.83;2.90;;;5.40;99.90;;;;;;5028587;28;20506;-76
2021/12/02 00:55:56;;;;;;;3.05;2.60;;;5.50;99.90;;;;;;5029874;28;20108;-76
2021/12/02 00:58:23;;;;;;;4.93;3.25;;;5.60;99.90;;;;;;5028496;28;20102;-76
2021/12/02 01:00:52;;;;;;;3.40;2.72;;;5.60;99.90;;;;;;5029829;28;20017;-76
2021/12/02 01:03:19;;;;;;;3.70;2.05;;;5.60;99.90;;;;;;5028825;28;20037;-76
2021/12/02 01:05:45;;;;;;;3.47;2.65;;;5.70;99.90;;;;;;5028409;28;20061;-77
2021/12/02 01:08:11;;;;;;;4.53;2.45;;;5.80;99.90;;;;;;5031436;28;20029;-76
2021/12/02 01:10:40;;;;;;;5.85;2.72;;;5.80;99.90;;;;;;5031897;28;20418;-76
2021/12/02 01:13:05;;;;;;;2.70;2.30;;;5.80;99.90;;;;;;5031937;28;20446;-76
2021/12/02 01:15:31;;;;;;;3.72;2.60;;;5.80;99.90;;;;;;5033096;28;20030;-77
2021/12/02 01:17:56;;;;;;;3.50;2.53;;;5.90;99.90;;;;;;5033126;28;20033;-76
2021/12/02 01:20:22;;;;;;;4.38;2.70;;;5.80;99.90;;;;;;5031776;28;20443;-76
2021/12/02 01:22:48;;;;;;;4.05;2.63;;;5.80;99.90;;;;;;5031801;28;20031;-77
2021/12/02 01:25:19;;;;;;;3.88;3.40;;;5.80;99.90;;;;;;5032887;28;20045;-76
2021/12/02 01:27:48;;;;;;;3.85;2.97;;;5.80;99.90;;;;;;5031863;28;20034;-76
2021/12/02 01:30:14;;;;;;;5.00;2.65;;;5.90;99.90;;;;;;5031429;28;20017;-76
2021/12/02 01:32:40;;;;;;;2.97;2.53;;;5.90;99.90;;;;;;5031265;28;20022;-76
2021/12/02 01:35:07;;;;;;;3.08;2.65;;;5.90;99.90;;;;;;5031532;28;20026;-77
2021/12/02 01:37:32;;;;;;;3.25;2.72;;;5.90;99.90;;;;;;5032871;28;20063;-76
2021/12/02 01:39:59;;;;;;;3.70;2.88;;;5.90;99.90;;;;;;5031310;28;20063;-76
2021/12/02 01:42:29;;;;;;;5.15;2.97;;;5.90;99.90;;;;;;5031238;28;20413;-76
2021/12/02 01:44:57;;;;;;;4.90;2.58;;;5.90;99.90;;;;;;5033133;28;20041;-76
2021/12/02 01:47:26;;;;;;;4.65;3.03;;;5.80;99.90;;;;;;5032375;28;20021;-76
2021/12/02 01:49:57;;;;;;;4.95;4.00;;;5.90;99.90;;;;;;5032492;28;20029;-76
2021/12/02 01:52:30;;;;;;;4.88;3.05;;;5.80;99.90;;;;;;5032618;28;20076;-76
2021/12/02 01:55:10;;;;;;;;;;;5.80;99.90;;;;;;5031632;28;20013;-76
2021/12/02 01:57:41;;;;;;;2.85;2.58;;;5.80;99.90;;;;;;5031256;28;19905;-76
2021/12/02 02:00:09;;;;;;;5.47;3.13;;;5.80;99.90;;;;;;5031277;28;20028;-76
2021/12/02 02:02:36;;;;;;;3.03;2.70;;;5.80;99.90;;;;;;5030809;28;20026;-76
2021/12/02 02:05:06;;;;;;;5.22;3.45;;;5.80;99.90;;;;;;5032279;28;20033;-76
2021/12/02 02:07:34;;;;;;;3.30;3.00;;;5.70;99.90;;;;;;5030868;28;20108;-76
2021/12/02 02:10:00;;;;;;;5.15;3.05;;;5.70;99.90;;;;;;5032058;28;20029;-76
2021/12/02 02:12:26;;;;;;;4.75;3.70;;;5.70;99.90;;;;;;5032031;28;20029;-76
2021/12/02 02:14:52;;;;;;;3.70;2.75;;;5.70;99.90;;;;;;5030595;28;20033;-76
2021/12/02 02:17:26;;;;;;;3.63;3.33;;;5.70;99.90;;;;;;5030671;28;20075;-76
2021/12/02 02:19:52;;;;;;;3.55;3.17;;;5.70;99.90;;;;;;5031197;28;20104;-76
2021/12/02 02:22:21;;;;;;;4.32;3.10;;;5.70;99.90;;;;;;5030724;28;20604;-76
2021/12/02 02:24:47;;;;;;;3.13;2.75;;;5.70;99.90;;;;;;5030670;28;20042;-76
2021/12/02 02:27:13;;;;;;;5.57;3.38;;;5.60;99.90;;;;;;5030836;28;20497;-76
2021/12/02 02:29:38;;;;;;;3.63;2.95;;;5.60;99.90;;;;;;5031769;28;20041;-76
2021/12/02 02:32:05;;;;;;;3.72;3.20;;;5.50;99.90;;;;;;5030779;28;20032;-76
2021/12/02 02:34:30;;;;;;;4.93;3.63;;;5.50;99.90;;;;;;5030626;28;20026;-76
2021/12/02 02:36:59;;;;;;;3.17;2.72;;;5.50;99.90;;;;;;5031955;28;20032;-76
2021/12/02 02:39:25;;;;;;;3.85;3.17;;;5.50;99.90;;;;;;5031886;28;20026;-76
2021/12/02 02:42:00;;;;;;;3.55;3.15;;;5.50;99.90;;;;;;5031198;28;20033;-76
2021/12/02 02:44:27;;;;;;;5.00;3.25;;;5.40;99.90;;;;;;5030543;28;20033;-76
2021/12/02 02:46:52;;;;;;;3.13;2.88;;;5.40;99.90;;;;;;5030523;28;20108;-76
2021/12/02 02:49:18;;;;;;;3.80;3.05;;;5.40;99.90;;;;;;5031669;28;20067;-76
2021/12/02 02:51:45;;;;;;;5.18;2.80;;;5.40;99.90;;;;;;5031306;28;20097;-76
2021/12/02 02:54:13;;;;;;;6.25;3.22;;;5.40;99.90;;;;;;5030367;28;20022;-76
2021/12/02 02:56:54;;;;;;;3.15;2.88;;;5.50;99.90;;;;;;5031576;28;20021;-76
2021/12/02 02:59:40;;;;;;;4.50;3.22;;;5.40;99.90;;;;;;5031397;28;20482;-76
2021/12/02 03:12:13;;;;;;;5.63;3.97;;;5.60;99.90;;;;;;5031925;28;20030;-76
2021/12/02 03:17:07;;;;;;;3.70;2.78;;;5.80;99.90;;;;;;5046978;28;20041;-76
2021/12/02 03:19:34;;;;;;;2.45;2.30;;;5.80;99.90;;;;;;5029897;28;20033;-76
2021/12/02 03:22:00;;;;;;;3.50;2.70;;;5.80;99.90;;;;;;5031010;28;20022;-76
2021/12/02 03:24:26;;;;;;;5.00;3.33;;;5.80;99.90;;;;;;5030932;28;20033;-76
2021/12/02 03:26:52;;;;;;;2.58;2.38;;;5.90;99.90;;;;;;5031173;28;20489;-76
2021/12/02 03:29:18;;;;;;;3.50;2.50;;;5.90;99.90;;;;;;5034283;28;20029;-76
2021/12/02 03:31:44;;;;;;;4.93;2.55;;;6.00;99.90;;;;;;5049720;28;20098;-76
2021/12/02 03:34:11;;;;;;;3.42;2.28;;;6.00;99.90;;;;;;5049635;28;20427;-76
2021/12/02 03:36:38;;;;;;;2.58;2.38;;;6.00;99.90;;;;;;5049662;28;20024;-76
2021/12/02 03:39:06;;;;;;;2.90;2.40;;;6.10;99.90;;;;;;5050738;28;20119;-76
2021/12/02 03:41:33;;;;;;;2.40;2.20;;;6.10;99.90;;;;;;5049287;28;20023;-76
2021/12/02 03:43:59;;;;;;;4.53;2.38;;;6.10;99.90;;;;;;5041838;28;20470;-76
2021/12/02 03:46:25;;;;;;;3.20;2.35;;;6.10;99.90;;;;;;5030878;28;20423;-77
2021/12/02 03:48:52;;;;;;;2.60;2.40;;;6.10;99.90;;;;;;5030761;28;20037;-76
2021/12/02 03:51:19;;;;;;;3.35;2.53;;;6.10;99.90;;;;;;5029412;28;20108;-76
2021/12/02 03:53:45;;;;;;;2.22;2.00;;;6.10;99.90;;;;;;5030621;28;20455;-77
2021/12/02 03:56:11;;;;;;;2.45;1.90;;;6.10;99.90;;;;;;5029515;28;20064;-76
2021/12/02 03:58:39;;;;;;;4.20;2.15;;;6.10;99.90;;;;;;5029331;28;20018;-76
2021/12/02 04:01:07;;;;;;;2.75;2.55;;;6.10;99.90;;;;;;5029075;28;20022;-76
2021/12/02 04:03:33;;;;;;;2.47;2.25;;;6.10;99.90;;;;;;5030513;28;20049;-76
2021/12/02 04:06:00;;;;;;;2.72;2.25;;;6.10;99.90;;;;;;5030528;28;20038;-76
2021/12/02 04:08:48;;;;;;;4.57;2.80;;;6.10;99.90;;;;;;5030512;28;20021;-76
2021/12/02 04:16:19;;;;;;;2.60;2.40;;;6.10;99.90;;;;;;5030703;28;20064;-76
2021/12/02 04:18:45;;;;;;;3.60;2.63;;;6.10;99.90;;;;;;5030341;28;20546;-76
2021/12/02 04:21:11;;;;;;;4.32;2.38;;;6.20;99.90;;;;;;5029086;28;20065;-76
2021/12/02 04:23:36;;;;;;;3.25;2.40;;;6.20;99.90;;;;;;5030249;28;20021;-76
2021/12/02 04:26:02;;;;;;;2.53;2.33;;;6.20;99.90;;;;;;5030079;28;20059;-76
2021/12/02 04:28:28;;;;;;;3.08;2.15;;;6.20;99.90;;;;;;5030060;28;20457;-76
2021/12/02 04:30:53;;;;;;;2.50;2.30;;;6.20;99.90;;;;;;5028985;28;20028;-76
2021/12/02 04:33:19;;;;;;;3.58;2.22;;;6.20;99.90;;;;;;5028837;28;20467;-76
2021/12/02 04:35:45;;;;;;;1.98;1.77;;;6.20;99.90;;;;;;5029999;28;20044;-77
2021/12/02 04:38:11;;;;;;;3.33;2.03;;;6.20;99.90;;;;;;5030130;28;20025;-76
2021/12/02 04:40:40;;;;;;;2.25;2.00;;;6.30;99.90;;;;;;5030077;28;20022;-76
2021/12/02 04:43:06;;;;;;;3.22;1.88;;;6.30;99.90;;;;;;5029509;28;20032;-76
2021/12/02 04:45:32;;;;;;;2.00;1.75;;;6.30;99.90;;;;;;5028470;28;20479;-76
2021/12/02 04:47:57;;;;;;;2.75;2.10;;;6.20;99.90;;;;;;5029986;28;20030;-76
2021/12/02 04:50:23;;;;;;;3.03;1.98;;;6.20;99.90;;;;;;5028439;28;20025;-76
2021/12/02 04:52:50;;;;;;;3.72;2.20;;;6.20;99.90;;;;;;5028522;28;20029;-77
2021/12/02 04:55:15;;;;;;;2.70;2.50;;;6.20;99.90;;;;;;5029737;28;20021;-76
2021/12/02 04:57:41;;;;;;;3.22;2.13;;;6.20;99.90;;;;;;5028335;28;20067;-76
2021/12/02 05:00:07;;;;;;;2.22;1.88;;;6.20;99.90;;;;;;5029558;28;20022;-76
2021/12/02 05:02:33;;;;;;;3.28;2.13;;;6.20;99.90;;;;;;5028390;28;20018;-76
2021/12/02 05:04:58;;;;;;;3.28;2.60;;;6.20;99.90;;;;;;5028063;28;20110;-76
2021/12/02 05:07:24;;;;;;;4.10;2.33;;;6.20;99.90;;;;;;5029599;28;20409;-76
2021/12/02 05:09:50;;;;;;;2.80;2.00;;;6.20;99.90;;;;;;5029237;28;20030;-76
2021/12/02 05:12:16;;;;;;;2.38;2.17;;;6.20;99.90;;;;;;5028196;28;20158;-76
2021/12/02 05:14:41;;;;;;;2.78;2.28;;;6.10;99.90;;;;;;5028296;28;20112;-76
2021/12/02 05:17:07;;;;;;;3.72;2.20;;;6.10;99.90;;;;;;5028370;28;20026;-76
2021/12/02 05:19:33;;;;;;;3.15;2.42;;;6.10;99.90;;;;;;5028106;28;20018;-76
2021/12/02 05:21:58;;;;;;;3.45;2.00;;;6.10;99.90;;;;;;5029608;28;20026;-76
2021/12/02 05:24:24;;;;;;;2.42;2.15;;;6.10;99.90;;;;;;5028277;28;20033;-76
2021/12/02 05:26:49;;;;;;;3.67;2.63;;;6.10;99.90;;;;;;5028212;28;20018;-76
2021/12/02 05:29:15;;;;;;;2.70;2.08;;;6.00;99.90;;;;;;5029170;28;20100;-76
2021/12/02 05:31:41;;;;;;;3.72;3.10;;;6.00;99.90;;;;;;5028179;28;20025;-76
2021/12/02 05:34:06;;;;;;;2.70;2.50;;;5.90;99.90;;;;;;5029237;28;20478;-76
2021/12/02 05:36:32;;;;;;;27.08;14.02;;;5.90;99.90;;;;;;5029225;28;20508;-76
2021/12/02 05:38:57;;;;;;;38.60;17.38;;;5.90;99.90;;;;;;5029091;28;20029;-76
2021/12/02 05:41:23;;;;;;;119.22;48.45;;;5.80;99.90;;;;;;5028028;28;20030;-76
2021/12/02 05:43:49;;;;;;;25.67;10.68;;;5.80;99.90;;;;;;5025141;28;20461;-76
2021/12/02 05:46:14;;;;;;;30.58;14.32;;;5.70;99.90;;;;;;5045910;28;20055;-76
2021/12/02 05:48:40;;;;;;;76.70;35.75;;;5.70;99.90;;;;;;5047241;28;20155;-76
2021/12/02 05:51:06;;;;;;;49.83;22.80;;;5.70;99.90;;;;;;5029732;28;20459;-76
2021/12/02 05:53:33;;;;;;;50.13;15.65;;;5.60;99.90;;;;;;5027307;28;20033;-76
2021/12/02 05:55:59;;;;;;;41.70;12.05;;;5.70;99.90;;;;;;5030227;28;20582;-76
2021/12/02 05:58:24;;;;;;;23.33;8.93;;;5.60;99.90;;;;;;5028429;28;20104;-76
2021/12/02 06:00:50;;;;;;;17.23;6.50;;;5.60;99.90;;;;;;5027415;28;20032;-75
2021/12/02 06:03:16;;;;;;;24.67;8.77;;;5.50;99.90;;;;;;5029569;28;20060;-76
2021/12/02 06:05:44;;;;;;;97.70;42.75;;;5.50;99.90;;;;;;5026917;28;20033;-76
2021/12/02 06:08:10;;;;;;;72.38;30.42;;;5.50;99.90;;;;;;5028581;28;20026;-76
2021/12/02 06:10:36;;;;;;;20.58;7.13;;;5.40;99.90;;;;;;5028777;28;20017;-76
2021/12/02 06:13:01;;;;;;;31.50;9.80;;;5.40;99.90;;;;;;5031501;28;20025;-76
2021/12/02 06:15:27;;;;;;;19.40;8.18;;;5.50;99.90;;;;;;5032058;28;20057;-76
2021/12/02 06:17:53;;;;;;;20.20;6.55;;;5.40;99.90;;;;;;5030843;28;20022;-76
2021/12/02 06:20:18;;;;;;;24.80;9.40;;;5.50;99.90;;;;;;5031988;28;20470;-76
2021/12/02 06:22:45;;;;;;;14.60;7.28;;;5.40;99.90;;;;;;5030858;28;20036;-76
2021/12/02 06:27:45;;;;;;;25.70;9.50;;;5.40;99.90;;;;;;5030885;28;20509;-76
2021/12/02 06:30:13;;;;;;;25.38;10.00;;;5.40;99.90;;;;;;5031633;28;20030;-76
2021/12/02 06:32:38;;;;;;;23.80;9.77;;;5.40;99.90;;;;;;5031184;28;20037;-76
2021/12/02 06:35:04;;;;;;;105.15;38.88;;;5.40;99.90;;;;;;5030113;28;20028;-76
2021/12/02 06:37:30;;;;;;;33.33;11.45;;;5.30;99.90;;;;;;5029538;28;20030;-75
2021/12/02 06:39:56;;;;;;;30.70;12.35;;;5.30;99.90;;;;;;5030024;28;20451;-76
2021/12/02 06:42:21;;;;;;;38.42;13.73;;;5.40;99.90;;;;;;5029476;28;20026;-76
2021/12/02 06:44:47;;;;;;;33.38;12.32;;;5.30;99.90;;;;;;5029768;28;20394;-76
2021/12/02 06:47:13;;;;;;;20.90;7.18;;;5.30;99.90;;;;;;5048853;27;20045;-75
2021/12/02 06:49:39;;;;;;;24.30;8.02;;;5.30;99.90;;;;;;5049493;27;20025;-75
2021/12/02 06:52:10;;;;;;;14.93;5.40;;;5.30;99.90;;;;;;5062282;27;20032;-76
2021/12/02 06:54:36;;;;;;;12.57;5.45;;;5.30;99.90;;;;;;5039590;27;20060;-76
2021/12/02 06:57:02;;;;;;;14.85;5.85;;;5.30;99.90;;;;;;5036240;27;20049;-76
2021/12/02 06:59:27;;;;;;;40.08;13.75;;;5.30;99.90;;;;;;5046192;27;20478;-75
2021/12/02 07:01:53;;;;;;;25.23;10.43;;;5.30;99.90;;;;;;5059033;27;20040;-75
2021/12/02 07:04:19;;;;;;;25.75;8.95;;;5.20;99.90;;;;;;5054836;27;20048;-77
2021/12/02 07:06:44;;;;;;;16.92;6.82;;;5.20;99.90;;;;;;5049285;27;20386;-76
2021/12/02 07:09:11;;;;;;;15.88;6.10;;;5.20;99.90;;;;;;5048071;27;20037;-76
2021/12/02 07:11:37;;;;;;;15.55;7.00;;;5.30;99.90;;;;;;5045923;27;20025;-76
2021/12/02 07:14:08;;;;;;;11.73;5.78;;;5.30;99.90;;;;;;5052490;27;20033;-76
2021/12/02 07:16:34;;;;;;;20.33;6.60;;;5.30;99.90;;;;;;5049049;27;20161;-76
2021/12/02 07:19:04;;;;;;;12.68;5.28;;;5.30;99.90;;;;;;5046913;27;20048;-75
2021/12/02 07:21:30;;;;;;;13.55;5.32;;;5.40;99.90;;;;;;5047983;27;20017;-75
2021/12/02 07:23:56;;;;;;;10.18;3.80;;;5.40;99.90;;;;;;5048317;27;20050;-76
2021/12/02 07:26:22;;;;;;;6.82;3.20;;;5.50;99.90;;;;;;5048928;27;20082;-75
2021/12/02 07:28:48;;;;;;;17.98;7.07;;;5.50;99.90;;;;;;5049295;27;20041;-76
2021/12/02 07:31:15;;;;;;;10.27;4.75;;;5.60;99.90;;;;;;5047947;27;20021;-76
2021/12/02 07:33:48;;;;;;;10.70;5.00;;;5.50;99.90;;;;;;5065260;27;20064;-75
2021/12/02 07:36:15;;;;;;;5.20;3.20;;;5.50;99.90;;;;;;5056684;27;20025;-75
2021/12/02 07:38:41;;;;;;;12.05;5.72;;;5.50;99.90;;;;;;5051013;27;21553;-75
2021/12/02 07:41:06;;;;;;;13.57;5.03;;;5.60;99.90;;;;;;5035460;27;20542;-76
2021/12/02 07:43:33;;;;;;;13.73;5.95;;;5.60;99.90;;;;;;5035110;28;20025;-76
2021/12/02 07:46:00;;;;;;;12.25;5.18;;;5.60;99.90;;;;;;5038575;28;20075;-76
2021/12/02 07:48:27;;;;;;;7.05;4.43;;;5.70;99.90;;;;;;5033150;28;20021;-76
2021/12/02 07:51:01;;;;;;;14.45;4.70;;;5.70;99.90;;;;;;5036062;28;20026;-76
2021/12/02 07:53:27;;;;;;;11.90;4.57;;;5.80;99.90;;;;;;5044488;27;20071;-76
2021/12/02 07:55:55;;;;;;;8.85;4.00;;;5.80;99.90;;;;;;5084603;27;20025;-76
2021/12/02 07:58:24;;;;;;;10.35;4.57;;;5.90;99.90;;;;;;5035698;28;20025;-76
2021/12/02 08:00:50;;;;;;;13.77;5.40;;;6.00;99.90;;;;;;5037543;28;20033;-77
2021/12/02 08:03:16;;;;;;;115.05;47.38;;;6.00;99.90;;;;;;5034097;28;20029;-76
2021/12/02 08:05:43;;;;;;;80.80;32.17;;;6.00;99.90;;;;;;5037039;28;20041;-77
2021/12/02 08:08:09;;;;;;;14.73;6.90;;;6.10;99.90;;;;;;5035773;28;20029;-76
2021/12/02 08:10:36;;;;;;;9.60;5.10;;;6.10;99.90;;;;;;5032439;28;20040;-77
2021/12/02 08:13:03;;;;;;;19.38;7.30;;;6.10;99.90;;;;;;5033055;28;20028;-76
2021/12/02 08:15:30;;;;;;;13.88;5.35;;;6.10;99.90;;;;;;5035565;28;20482;-76
2021/12/02 08:17:58;;;;;;;8.50;3.88;;;6.00;99.90;;;;;;5034826;28;20073;-77
2021/12/02 08:20:26;;;;;;;9.90;5.43;;;6.10;99.90;;;;;;5032998;28;20074;-77
2021/12/02 08:22:53;;;;;;;8.85;4.68;;;6.20;99.90;;;;;;5035544;28;20028;-77
2021/12/02 08:25:22;;;;;;;6.82;4.00;;;6.30;99.90;;;;;;5037614;28;20146;-76
2021/12/02 08:27:49;;;;;;;7.88;5.45;;;6.30;99.90;;;;;;5032713;28;20384;-76
2021/12/02 08:30:16;;;;;;;10.00;4.85;;;6.40;99.90;;;;;;5037564;28;20022;-77
2021/12/02 08:32:42;;;;;;;5.90;3.70;;;6.50;99.90;;;;;;5031044;28;20402;-77
2021/12/02 08:35:10;;;;;;;5.03;3.70;;;6.50;99.90;;;;;;5033092;28;20422;-77
2021/12/02 08:37:40;;;;;;;5.05;3.58;;;6.50;99.90;;;;;;5031236;28;20028;-77
2021/12/02 08:40:07;;;;;;;5.38;3.95;;;6.60;99.90;;;;;;5033416;28;20021;-77
2021/12/02 08:42:33;;;;;;;7.72;4.05;;;6.60;99.90;;;;;;5034302;28;20025;-77
2021/12/02 08:45:00;;;;;;;8.38;4.07;;;6.60;99.90;;;;;;5045705;28;20422;-77
2021/12/02 08:47:28;;;;;;;7.05;3.85;;;6.60;99.90;;;;;;5035836;28;20069;-76
2021/12/02 08:49:55;;;;;;;7.13;4.00;;;6.60;99.90;;;;;;5028560;28;20025;-77
2021/12/02 08:52:22;;;;;;;8.43;4.05;;;6.70;99.90;;;;;;5029930;28;20471;-77
2021/12/02 08:54:50;;;;;;;4.00;3.33;;;6.70;99.90;;;;;;5029855;28;20029;-77
2021/12/02 08:57:18;;;;;;;6.15;4.15;;;6.60;99.90;;;;;;5043955;28;20025;-77
2021/12/02 08:59:44;;;;;;;5.03;3.22;;;6.60;99.90;;;;;;5049442;28;20067;-77
2021/12/02 09:02:10;;;;;;;7.00;4.07;;;6.60;99.90;;;;;;5049419;28;20066;-77
2021/12/02 09:04:36;;;;;;;6.90;3.67;;;6.70;99.90;;;;;;5047989;28;20025;-76
2021/12/02 09:07:02;;;;;;;7.30;4.70;;;6.70;99.90;;;;;;5049200;28;20017;-77
2021/12/02 09:09:28;;;;;;;8.18;4.50;;;6.70;99.90;;;;;;5042502;27;20033;-77
2021/12/02 09:11:55;;;;;;;4.75;3.70;;;6.70;99.90;;;;;;5029610;28;20030;-77
2021/12/02 09:14:21;;;;;;;4.28;3.63;;;6.70;99.90;;;;;;5036180;28;20021;-76
2021/12/02 09:16:48;;;;;;;6.72;4.65;;;6.70;99.90;;;;;;5047947;28;20031;-77
2021/12/02 09:19:14;;;;;;;6.47;3.95;;;6.80;99.90;;;;;;5049350;28;20029;-77
2021/12/02 09:21:40;;;;;;;7.22;4.32;;;6.80;99.90;;;;;;5048830;28;20103;-76
2021/12/02 09:24:05;;;;;;;9.10;5.00;;;6.80;99.90;;;;;;5048265;28;20024;-77
2021/12/02 09:26:31;;;;;;;6.38;3.95;;;6.80;99.90;;;;;;5041209;28;20470;-76
2021/12/02 09:28:58;;;;;;;10.88;6.50;;;6.80;99.90;;;;;;5033117;28;20020;-77
2021/12/02 09:31:23;;;;;;;5.82;4.10;;;6.80;99.90;;;;;;5036142;28;20492;-77
2021/12/02 09:33:49;;;;;;;8.48;4.70;;;6.80;99.90;;;;;;5037047;28;20033;-77
2021/12/02 09:36:16;;;;;;;8.38;6.88;;;6.80;99.90;;;;;;5035217;28;20025;-77
2021/12/02 09:38:43;;;;;;;19.33;8.30;;;6.70;99.90;;;;;;5038716;28;20033;-76
2021/12/02 09:41:08;;;;;;;7.63;4.43;;;6.80;99.90;;;;;;5036811;28;20083;-76
2021/12/02 09:43:34;;;;;;;11.02;6.22;;;6.80;99.90;;;;;;5044564;27;20375;-77
2021/12/02 09:46:00;;;;;;;10.77;6.70;;;6.70;99.90;;;;;;5083934;27;20031;-76
2021/12/02 09:48:27;;;;;;;7.57;4.30;;;6.70;99.90;;;;;;5046919;27;20052;-77
2021/12/02 09:50:57;;;;;;;9.02;6.40;;;6.70;99.90;;;;;;5039771;28;20036;-77
2021/12/02 09:53:26;;;;;;;46.17;18.77;;;6.70;99.90;;;;;;5041699;27;20494;-77
2021/12/02 09:56:06;;;;;;;28.50;13.68;;;6.60;99.90;;;;;;5071122;27;20098;-76
2021/12/02 09:58:32;;;;;;;6.93;5.00;;;6.70;99.90;;;;;;5055773;27;20381;-76
2021/12/02 10:01:08;;;;;;;5.35;4.30;;;6.60;99.90;;;;;;5077222;27;20116;-77
2021/12/02 10:03:37;;;;;;;10.52;5.70;;;6.60;99.90;;;;;;5036531;27;20033;-76
2021/12/02 10:06:10;;;;;;;8.30;5.07;;;6.50;99.90;;;;;;5049086;27;20031;-77
2021/12/02 10:11:56;;;;;;;8.10;4.90;;;6.50;99.90;;;;;;5045496;27;19907;-77
2021/12/02 10:14:33;;;;;;;8.18;5.53;;;6.50;99.90;;;;;;5043948;27;20057;-77
2021/12/02 10:17:06;;;;;;;12.73;8.38;;;6.40;99.90;;;;;;5056847;27;20030;-77
2021/12/02 10:19:32;;;;;;;7.07;5.82;;;6.50;99.90;;;;;;5063955;27;20029;-76
2021/12/02 10:22:04;;;;;;;7.10;4.63;;;6.50;99.90;;;;;;5069990;27;20019;-77
2021/12/02 10:24:30;;;;;;;10.00;6.07;;;6.50;99.90;;;;;;5049999;27;20079;-77
2021/12/02 10:26:58;;;;;;;9.05;4.40;;;6.50;99.90;;;;;;5052696;27;20025;-77
2021/12/02 10:29:28;;;;;;;8.68;4.82;;;6.50;99.90;;;;;;5104471;27;20023;-77
2021/12/02 10:32:16;;;;;;;6.35;4.32;;;6.50;99.90;;;;;;5052118;27;20425;-77
2021/12/02 10:34:51;;;;;;;9.15;5.65;;;6.40;99.90;;;;;;5044952;27;20028;-76
2021/12/02 10:37:19;;;;;;;7.40;4.00;;;6.40;99.90;;;;;;5062984;27;20028;-76
2021/12/02 10:40:00;;;;;;;6.45;4.28;;;6.30;99.90;;;;;;5035384;27;20040;-77
2021/12/02 10:42:27;;;;;;;6.65;4.60;;;6.40;99.90;;;;;;5038503;27;20035;-77
2021/12/02 10:44:54;;;;;;;7.38;3.60;;;6.30;99.90;;;;;;5034011;28;20037;-76
2021/12/02 10:47:22;;;;;;;5.07;4.00;;;6.30;99.90;;;;;;5047005;27;20025;-77
2021/12/02 10:49:59;;;;;;;7.68;4.13;;;6.30;99.90;;;;;;5033521;28;20168;-76
2021/12/02 10:52:26;;;;;;;6.10;3.60;;;6.40;99.90;;;;;;5036823;28;20021;-76
2021/12/02 10:55:01;;;;;;;4.40;3.63;;;6.40;99.90;;;;;;5036370;28;20025;-76
2021/12/02 10:57:28;;;;;;;5.78;4.25;;;6.40;99.90;;;;;;5035720;28;20036;-77
2021/12/02 11:00:00;;;;;;;6.78;4.25;;;6.40;99.90;;;;;;5037739;28;20036;-77
2021/12/02 11:02:32;;;;;;;6.65;4.30;;;6.40;99.90;;;;;;5036010;28;20409;-77
2021/12/02 11:05:02;;;;;;;6.82;4.15;;;6.40;99.90;;;;;;5036124;28;20097;-77
2021/12/02 11:07:34;;;;;;;6.53;4.55;;;6.40;99.90;;;;;;5037008;28;20024;-76
2021/12/02 11:10:12;;;;;;;8.30;3.83;;;6.40;99.90;;;;;;5035553;28;20094;-77
2021/12/02 11:12:42;;;;;;;8.70;5.70;;;6.50;99.70;;;;;;5039357;28;20033;-77
2021/12/02 11:15:17;;;;;;;6.82;5.18;;;6.50;99.50;;;;;;5037115;28;20025;-77
2021/12/02 11:17:47;;;;;;;9.40;4.93;;;6.60;99.90;;;;;;5043015;27;20025;-77
2021/12/02 11:20:21;;;;;;;8.93;4.15;;;6.60;99.90;;;;;;5041982;27;20057;-77
2021/12/02 11:22:47;;;;;;;8.30;5.35;;;6.60;99.70;;;;;;5036947;28;20024;-77
2021/12/02 11:25:14;;;;;;;8.55;5.07;;;6.50;98.00;;;;;;5037785;27;20037;-77
2021/12/02 11:27:43;;;;;;;8.85;5.93;;;6.40;98.20;;;;;;5044791;27;20360;-76
2021/12/02 11:30:20;;;;;;;9.25;5.10;;;6.30;99.90;;;;;;5039114;27;20029;-77
2021/12/02 11:32:51;;;;;;;7.70;5.32;;;6.30;99.90;;;;;;5035718;27;20025;-77
2021/12/02 11:35:22;;;;;;;9.05;5.05;;;6.30;99.90;;;;;;5036941;28;20376;-77
2021/12/02 11:37:51;;;;;;;10.50;7.15;;;6.30;99.90;;;;;;5034205;27;20160;-77
2021/12/02 11:40:22;;;;;;;10.18;5.35;;;6.30;99.90;;;;;;5051511;27;20476;-77
2021/12/02 11:42:49;;;;;;;13.00;7.18;;;6.30;99.90;;;;;;5074842;27;20109;-77
2021/12/02 11:45:17;;;;;;;8.30;4.10;;;6.40;99.90;;;;;;5077022;27;20121;-77
2021/12/02 11:47:44;;;;;;;5.65;3.60;;;6.50;98.30;;;;;;5055165;27;20027;-76
2021/12/02 11:50:11;;;;;;;8.88;6.90;;;6.50;92.30;;;;;;5048211;27;20044;-77
2021/12/02 11:52:39;;;;;;;20.15;12.18;;;6.50;92.90;;;;;;5037438;27;20021;-76
2021/12/02 11:55:09;;;;;;;6.50;4.35;;;6.50;89.60;;;;;;5044479;27;20490;-76
2021/12/02 11:57:35;;;;;;;4.55;3.40;;;6.50;88.80;;;;;;5040717;27;20029;-76
2021/12/02 12:00:05;;;;;;;6.93;3.40;;;6.50;87.90;;;;;;5039724;27;20021;-76
2021/12/02 12:02:31;;;;;;;5.13;3.28;;;6.50;88.50;;;;;;5050603;27;20032;-76
2021/12/02 12:05:04;;;;;;;4.30;3.08;;;6.50;86.30;;;;;;5050201;27;20029;-77
2021/12/02 12:07:47;;;;;;;4.63;2.90;;;6.50;85.90;;;;;;5041748;27;20435;-76
2021/12/02 12:10:26;;;;;;;4.25;3.35;;;6.50;84.30;;;;;;5037905;27;20066;-77
2021/12/02 12:13:09;;;;;;;5.35;3.72;;;6.50;84.10;;;;;;5033790;28;20032;-76
2021/12/02 12:15:41;;;;;;;5.57;3.70;;;6.60;84.80;;;;;;5029553;28;20364;-76
2021/12/02 12:18:10;;;;;;;5.63;3.55;;;6.60;85.80;;;;;;5030782;28;20074;-76
2021/12/02 12:20:54;;;;;;;6.97;3.58;;;6.50;86.70;;;;;;5074524;27;20017;-76
2021/12/02 12:23:40;;;;;;;6.63;4.63;;;6.60;86.80;;;;;;5031029;28;20021;-76
2021/12/02 12:26:28;;;;;;;5.50;3.80;;;6.50;87.20;;;;;;5029787;28;20521;-77
2021/12/02 12:29:03;;;;;;;4.78;3.55;;;6.50;85.30;;;;;;5041514;28;20034;-76
2021/12/02 12:32:05;;;;;;;14.73;9.35;;;6.50;85.30;;;;;;5031786;28;20029;-76
2021/12/02 12:34:37;;;;;;;6.13;4.00;;;6.40;86.10;;;;;;5070799;27;20587;-76
2021/12/02 12:37:30;;;;;;;8.87;4.37;;;6.40;84.30;;;;;;5026477;28;20064;-76
2021/12/02 12:40:15;;;;;;;9.53;5.30;;;6.30;82.10;;;;;;5039565;27;20363;-77
2021/12/02 12:43:02;;;;;;;7.35;5.00;;;6.30;83.70;;;;;;5045685;27;20282;-76
2021/12/02 12:45:36;;;;;;;6.22;4.60;;;6.20;81.20;;;;;;5047090;28;20059;-77
2021/12/02 12:48:05;;;;;;;5.43;3.55;;;6.20;82.20;;;;;;5084477;27;20011;-76
2021/12/02 12:50:42;;;;;;;7.75;3.88;;;6.20;82.00;;;;;;5113257;27;20017;-77
2021/12/02 12:53:17;;;;;;;9.05;5.00;;;6.10;83.10;;;;;;5077161;27;20497;-76
2021/12/02 12:56:10;;;;;;;5.25;4.13;;;6.10;84.10;;;;;;5063082;27;20067;-76
2021/12/02 12:58:38;;;;;;;11.55;5.70;;;6.10;85.30;;;;;;5064004;27;20067;-76
2021/12/02 13:01:21;;;;;;;7.97;6.05;;;6.00;86.80;;;;;;5099189;27;20372;-76
2021/12/02 13:04:22;;;;;;;11.35;7.00;;;6.10;88.00;;;;;;5109160;27;20036;-77
2021/12/02 13:07:05;;;;;;;9.38;6.15;;;6.00;89.40;;;;;;5091270;27;20500;-77
2021/12/02 13:09:35;;;;;;;8.98;5.25;;;6.00;89.50;;;;;;5100558;27;20043;-77
2021/12/02 13:12:03;;;;;;;11.55;7.47;;;5.90;91.40;;;;;;5094853;27;20462;-77
2021/12/02 13:14:29;;;;;;;9.20;5.30;;;5.90;93.10;;;;;;5108380;27;20019;-77
2021/12/02 13:16:55;;;;;;;12.57;9.18;;;5.90;92.90;;;;;;5103677;27;20443;-77
2021/12/02 13:19:20;;;;;;;17.33;9.93;;;5.90;92.60;;;;;;5095967;27;20104;-77
2021/12/02 13:21:57;;;;;;;15.73;8.77;;;5.80;93.40;;;;;;5109882;27;20033;-77
2021/12/02 13:24:33;;;;;;;34.72;11.93;;;5.80;89.30;;;;;;5074950;27;20026;-77
2021/12/02 13:27:06;;;;;;;20.20;9.02;;;5.80;89.20;;;;;;5111045;27;20026;-76
2021/12/02 13:29:34;;;;;;;10.13;5.88;;;5.80;87.70;;;;;;5097972;27;20047;-76